createdAt,value
2019-03-13T00:00:38.708Z,3.83
2019-03-13T00:03:08.371Z,3.73
2019-03-13T00:05:37.338Z,3.60
2019-03-13T00:08:06.317Z,3.87
2019-03-13T00:10:34.976Z,3.83
2019-03-13T00:13:03.978Z,4.00
2019-03-13T00:15:32.814Z,4.27
2019-03-13T00:18:01.470Z,4.00
2019-03-13T00:20:30.141Z,3.87
2019-03-13T00:22:58.812Z,3.63
2019-03-13T00:25:27.515Z,3.47
2019-03-13T00:27:56.367Z,3.40
2019-03-13T00:30:25.074Z,3.90
2019-03-13T00:32:53.737Z,3.30
2019-03-13T00:35:22.441Z,3.70
2019-03-13T00:37:51.100Z,3.67
2019-03-13T00:40:19.776Z,4.33
2019-03-13T00:42:48.471Z,4.37
2019-03-13T00:45:18.286Z,5.07
2019-03-13T00:47:47.069Z,5.00
2019-03-13T00:50:24.580Z,4.97
2019-03-13T00:52:53.330Z,4.70
2019-03-13T00:55:22.043Z,4.57
2019-03-13T00:57:50.707Z,4.90
2019-03-13T01:00:33.770Z,5.07
2019-03-13T01:03:02.436Z,3.90
2019-03-13T01:05:32.682Z,4.10
2019-03-13T01:08:01.375Z,3.80
2019-03-13T01:10:30.104Z,4.37
2019-03-13T01:12:58.778Z,4.37
2019-03-13T01:15:27.466Z,3.77
2019-03-13T01:17:56.128Z,3.63
2019-03-13T01:20:24.786Z,4.10
2019-03-13T01:22:53.450Z,4.00
2019-03-13T01:25:22.117Z,3.77
2019-03-13T01:27:50.793Z,3.97
2019-03-13T01:30:19.484Z,4.00
2019-03-13T01:32:49.725Z,3.27
2019-03-13T01:35:26.268Z,3.80
2019-03-13T01:37:55.036Z,3.57
2019-03-13T01:40:23.699Z,3.90
2019-03-13T01:42:52.382Z,3.27
2019-03-13T01:45:22.520Z,3.00
2019-03-13T01:47:51.209Z,3.13
2019-03-13T01:50:19.876Z,3.40
2019-03-13T01:52:48.543Z,3.27
2019-03-13T01:55:17.219Z,3.37
2019-03-13T01:57:45.875Z,3.43
2019-03-13T02:00:16.661Z,3.20
2019-03-13T02:02:45.409Z,3.40
2019-03-13T02:05:14.574Z,3.80
2019-03-13T02:07:43.264Z,3.83
2019-03-13T02:10:13.276Z,3.47
2019-03-13T02:12:42.267Z,3.93
2019-03-13T02:15:13.757Z,3.87
2019-03-13T02:17:42.417Z,4.00
2019-03-13T02:20:12.714Z,4.00
2019-03-13T02:22:41.382Z,3.63
2019-03-13T02:25:12.154Z,4.03
2019-03-13T02:27:40.811Z,3.70
2019-03-13T02:30:18.839Z,3.73
2019-03-13T02:32:47.503Z,3.60
2019-03-13T02:35:16.192Z,4.00
2019-03-13T02:37:45.243Z,3.87
2019-03-13T02:40:15.309Z,4.00
2019-03-13T02:42:43.981Z,3.83
2019-03-13T02:45:14.551Z,3.80
2019-03-13T02:47:43.214Z,4.03
2019-03-13T02:50:16.486Z,3.77
2019-03-13T02:52:45.303Z,3.80
2019-03-13T02:55:14.037Z,5.73
2019-03-13T02:57:42.719Z,5.47
2019-03-13T03:00:19.127Z,5.27
2019-03-13T03:02:49.356Z,5.00
2019-03-13T03:05:18.207Z,5.47
2019-03-13T03:07:46.888Z,5.80
2019-03-13T03:10:15.532Z,5.00
2019-03-13T03:12:44.277Z,5.30
2019-03-13T03:15:18.385Z,5.27
2019-03-13T03:17:47.111Z,5.17
2019-03-13T03:20:20.370Z,5.60
2019-03-13T03:22:49.027Z,5.17
2019-03-13T03:25:18.290Z,4.57
2019-03-13T03:27:46.945Z,6.07
2019-03-13T03:30:23.854Z,5.77
2019-03-13T03:32:52.554Z,5.53
2019-03-13T03:35:21.455Z,5.60
2019-03-13T03:37:50.123Z,4.03
2019-03-13T03:40:22.902Z,4.00
2019-03-13T03:42:51.009Z,3.67
2019-03-13T03:45:19.681Z,4.10
2019-03-13T03:47:48.366Z,4.73
2019-03-13T03:50:17.934Z,4.03
2019-03-13T03:52:46.858Z,3.63
2019-03-13T03:55:16.643Z,3.80
2019-03-13T03:57:45.460Z,4.60
2019-03-13T04:00:18.828Z,4.17
2019-03-13T04:02:47.485Z,4.20
2019-03-13T04:05:16.399Z,4.27
2019-03-13T04:07:45.065Z,4.57
2019-03-13T04:10:14.812Z,3.97
2019-03-13T04:12:43.485Z,3.40
2019-03-13T04:15:17.053Z,3.77
2019-03-13T04:17:45.859Z,4.10
2019-03-13T04:20:16.731Z,3.87
2019-03-13T04:22:45.480Z,3.90
2019-03-13T04:25:31.147Z,3.93
2019-03-13T04:28:00.055Z,4.17
2019-03-13T04:30:29.131Z,3.67
2019-03-13T04:32:57.833Z,3.70
2019-03-13T04:35:26.519Z,3.97
2019-03-13T04:37:55.191Z,3.40
2019-03-13T04:40:24.003Z,3.80
2019-03-13T04:42:52.684Z,3.50
2019-03-13T04:45:21.355Z,4.10
2019-03-13T04:47:50.023Z,4.03
2019-03-13T04:50:18.707Z,3.47
2019-03-13T04:52:47.652Z,3.63
2019-03-13T04:55:17.243Z,3.77
2019-03-13T04:57:45.967Z,3.60
2019-03-13T05:00:21.271Z,3.27
2019-03-13T05:02:50.058Z,4.00
2019-03-13T05:05:42.384Z,3.47
2019-03-13T05:08:20.544Z,3.43
2019-03-13T05:10:49.229Z,4.40
2019-03-13T05:13:17.926Z,3.77
2019-03-13T05:15:46.783Z,3.23
2019-03-13T05:18:15.446Z,3.40
2019-03-13T05:20:44.120Z,3.50
2019-03-13T05:23:12.776Z,3.60
2019-03-13T05:25:41.444Z,3.50
2019-03-13T05:28:10.122Z,3.93
2019-03-13T05:30:38.814Z,3.33
2019-03-13T05:33:07.501Z,3.20
2019-03-13T05:35:36.211Z,3.43
2019-03-13T05:38:04.924Z,3.93
2019-03-13T05:40:33.625Z,3.40
2019-03-13T05:43:02.282Z,3.40
2019-03-13T05:45:30.948Z,3.60
2019-03-13T05:47:59.612Z,3.67
2019-03-13T05:50:31.486Z,3.07
2019-03-13T05:52:59.125Z,3.40
2019-03-13T05:55:27.972Z,4.03
2019-03-13T05:57:56.682Z,3.47
2019-03-13T06:00:26.472Z,3.30
2019-03-13T06:02:55.138Z,6.17
2019-03-13T06:05:23.849Z,3.70
2019-03-13T06:07:52.516Z,3.60
2019-03-13T06:10:21.197Z,4.20
2019-03-13T06:12:50.013Z,4.60
2019-03-13T06:15:18.898Z,4.47
2019-03-13T06:17:47.555Z,5.50
2019-03-13T06:20:17.257Z,5.80
2019-03-13T06:22:46.049Z,6.30
2019-03-13T06:25:15.197Z,6.20
2019-03-13T06:27:46.345Z,6.80
2019-03-13T06:30:17.260Z,6.77
2019-03-13T06:32:45.977Z,6.53
2019-03-13T06:35:14.955Z,5.83
2019-03-13T06:37:43.767Z,6.23
2019-03-13T06:40:17.364Z,6.53
2019-03-13T06:42:46.338Z,5.30
2019-03-13T06:45:16.424Z,4.47
2019-03-13T06:47:45.277Z,5.10
2019-03-13T06:50:22.394Z,5.20
2019-03-13T06:52:51.064Z,3.93
2019-03-13T06:55:19.733Z,4.43
2019-03-13T06:57:48.907Z,4.03
2019-03-13T07:00:35.564Z,5.10
2019-03-13T07:03:08.959Z,3.97
2019-03-13T07:08:41.456Z,3.80
2019-03-13T07:11:20.567Z,4.03
2019-03-13T07:14:09.142Z,3.53
2019-03-13T07:16:39.417Z,3.67
2019-03-13T07:19:25.771Z,3.50
2019-03-13T07:22:01.760Z,3.10
2019-03-13T07:24:48.509Z,4.20
2019-03-13T07:27:24.694Z,4.20
2019-03-13T07:30:10.057Z,3.70
2019-03-13T07:32:43.076Z,5.27
2019-03-13T07:35:28.703Z,4.83
2019-03-13T07:37:58.958Z,5.63
2019-03-13T07:40:41.051Z,6.40
2019-03-13T07:43:27.827Z,4.13
2019-03-13T07:45:58.212Z,3.40
2019-03-13T07:48:31.524Z,3.83
2019-03-13T07:51:18.381Z,4.13
2019-03-13T07:53:54.740Z,4.57
2019-03-13T07:56:34.026Z,3.77
2019-03-13T07:59:06.931Z,4.13
2019-03-13T08:01:37.276Z,4.40
2019-03-13T08:04:19.666Z,6.67
2019-03-13T08:06:52.922Z,3.17
2019-03-13T08:09:35.043Z,4.87
2019-03-13T08:12:05.790Z,5.07
2019-03-13T08:14:45.157Z,3.70
2019-03-13T08:17:21.320Z,3.67
2019-03-13T08:20:00.494Z,3.33
2019-03-13T08:22:36.573Z,4.80
2019-03-13T08:25:24.895Z,4.27
2019-03-13T08:27:58.272Z,3.30
2019-03-13T08:30:37.968Z,3.63
2019-03-13T08:33:08.213Z,5.13
2019-03-13T08:35:55.056Z,4.40
2019-03-13T08:38:31.285Z,3.47
2019-03-13T08:41:04.246Z,4.40
2019-03-13T08:43:50.613Z,5.30
2019-03-13T08:46:37.310Z,4.00
2019-03-13T08:49:19.556Z,4.53
2019-03-13T08:52:01.848Z,2.63
2019-03-13T08:54:32.281Z,3.60
2019-03-13T08:57:02.815Z,3.00
2019-03-13T08:59:33.058Z,3.10
2019-03-13T09:02:05.853Z,2.90
2019-03-13T09:04:42.485Z,3.10
2019-03-13T09:07:15.895Z,3.60
2019-03-13T09:09:49.080Z,3.60
2019-03-13T09:12:25.561Z,2.97
2019-03-13T09:14:55.809Z,2.73
2019-03-13T09:17:26.056Z,3.40
2019-03-13T09:19:59.468Z,4.60
2019-03-13T09:22:36.047Z,4.40
2019-03-13T09:25:12.317Z,8.20
2019-03-13T09:27:46.333Z,2.90
2019-03-13T09:30:16.808Z,4.37
2019-03-13T09:33:03.302Z,4.43
2019-03-13T09:35:33.536Z,3.63
2019-03-13T09:38:06.886Z,7.10
2019-03-13T09:40:37.142Z,2.60
2019-03-13T09:43:10.532Z,2.80
2019-03-13T09:45:40.833Z,2.80
2019-03-13T09:48:11.107Z,2.40
2019-03-13T09:50:41.341Z,2.63
2019-03-13T09:53:11.609Z,2.30
2019-03-13T09:55:44.606Z,2.30
2019-03-13T09:58:24.005Z,2.73
2019-03-13T10:01:07.921Z,2.30
2019-03-13T10:03:57.746Z,2.53
2019-03-13T10:06:46.756Z,3.70
2019-03-13T10:09:23.225Z,2.50
2019-03-13T10:11:56.305Z,2.60
2019-03-13T10:14:29.426Z,2.13
2019-03-13T10:17:10.445Z,2.90
2019-03-13T10:19:37.476Z,3.10
2019-03-13T10:22:09.228Z,3.13
2019-03-13T10:24:39.481Z,3.57
2019-03-13T10:27:14.066Z,5.00
2019-03-13T10:29:50.572Z,3.10
2019-03-13T10:32:21.243Z,3.20
2019-03-13T10:34:54.397Z,3.30
2019-03-13T10:37:30.655Z,3.33
2019-03-13T10:40:03.888Z,2.67
2019-03-13T10:42:34.126Z,3.20
2019-03-13T10:45:11.840Z,2.67
2019-03-13T10:47:45.074Z,3.03
2019-03-13T10:50:16.081Z,4.63
2019-03-13T10:53:01.529Z,3.80
2019-03-13T10:55:34.863Z,3.60
2019-03-13T10:58:21.478Z,3.30
2019-03-13T11:00:51.835Z,3.40
2019-03-13T11:03:31.182Z,3.33
2019-03-13T11:06:19.197Z,5.37
2019-03-13T11:09:05.877Z,3.33
2019-03-13T11:11:54.489Z,2.17
2019-03-13T11:14:40.003Z,3.30
2019-03-13T11:17:19.412Z,2.93
2019-03-13T11:19:58.405Z,2.80
2019-03-13T11:22:43.570Z,3.03
2019-03-13T11:25:31.912Z,2.50
2019-03-13T11:28:02.278Z,3.17
2019-03-13T11:30:38.432Z,2.30
2019-03-13T11:33:23.639Z,2.40
2019-03-13T11:36:02.570Z,2.10
2019-03-13T11:38:32.996Z,2.13
2019-03-13T11:41:06.849Z,2.87
2019-03-13T11:43:55.095Z,2.60
2019-03-13T11:46:43.488Z,2.50
2019-03-13T11:49:25.836Z,2.72
2019-03-13T11:52:05.123Z,2.90
2019-03-13T11:54:35.464Z,3.33
2019-03-13T11:57:14.464Z,2.77
2019-03-13T11:59:48.239Z,3.60
2019-03-13T12:02:35.015Z,2.33
2019-03-13T12:05:06.414Z,2.07
2019-03-13T12:07:53.145Z,2.50
2019-03-13T12:10:23.398Z,2.40
2019-03-13T12:12:53.872Z,2.40
2019-03-13T12:15:39.937Z,3.00
2019-03-13T12:18:16.207Z,2.40
2019-03-13T12:21:01.712Z,2.57
2019-03-13T12:23:48.358Z,2.90
2019-03-13T12:26:22.068Z,2.90
2019-03-13T12:29:08.663Z,2.80
2019-03-13T12:31:55.281Z,2.93
2019-03-13T12:34:25.578Z,2.47
2019-03-13T12:37:12.098Z,2.50
2019-03-13T12:39:59.954Z,3.00
2019-03-13T12:42:30.296Z,2.87
2019-03-13T12:45:17.189Z,3.10
2019-03-13T12:48:16.150Z,3.77
2019-03-13T12:50:38.739Z,3.67
2019-03-13T12:56:01.728Z,2.90
2019-03-13T12:58:48.709Z,2.50
2019-03-13T13:01:22.305Z,2.83
2019-03-13T13:04:08.790Z,3.07
2019-03-13T13:06:41.935Z,3.10
2019-03-13T13:09:17.962Z,2.70
2019-03-13T13:11:56.299Z,2.97
2019-03-13T13:14:27.101Z,3.03
2019-03-13T13:17:15.291Z,3.73
2019-03-13T13:19:43.987Z,2.77
2019-03-13T13:22:12.857Z,3.60
2019-03-13T13:24:44.250Z,3.00
2019-03-13T13:27:13.127Z,3.40
2019-03-13T13:29:41.786Z,5.50
2019-03-13T13:32:10.650Z,4.97
2019-03-13T13:34:39.347Z,3.70
2019-03-13T13:37:08.122Z,6.87
2019-03-13T13:39:36.814Z,3.63
2019-03-13T13:42:05.838Z,3.30
2019-03-13T13:44:34.880Z,3.10
2019-03-13T13:47:03.550Z,2.80
2019-03-13T13:49:32.476Z,2.77
2019-03-13T13:52:01.320Z,3.93
2019-03-13T13:54:30.070Z,3.07
2019-03-13T13:56:58.790Z,3.20
2019-03-13T13:59:31.055Z,4.30
2019-03-13T14:02:00.621Z,3.40
2019-03-13T14:04:29.336Z,3.47
2019-03-13T14:06:58.097Z,3.23
2019-03-13T14:09:27.042Z,3.00
2019-03-13T14:11:55.884Z,3.73
2019-03-13T14:14:24.893Z,3.43
2019-03-13T14:16:53.761Z,4.53
2019-03-13T14:19:22.686Z,3.10
2019-03-13T14:21:54.646Z,3.17
2019-03-13T14:24:23.545Z,3.10
2019-03-13T14:26:52.478Z,2.97
2019-03-13T14:29:21.199Z,2.90
2019-03-13T14:31:50.128Z,3.43
2019-03-13T14:34:19.220Z,3.00
2019-03-13T14:36:48.573Z,3.00
2019-03-13T14:39:17.295Z,2.90
2019-03-13T14:41:46.217Z,3.40
2019-03-13T14:44:15.077Z,3.43
2019-03-13T14:46:43.969Z,3.00
2019-03-13T14:50:09.773Z,3.20
2019-03-13T14:52:38.443Z,3.70
2019-03-13T14:55:10.131Z,3.40
2019-03-13T14:57:38.829Z,3.23
2019-03-13T15:00:13.172Z,3.17
2019-03-13T15:02:41.942Z,4.00
2019-03-13T15:05:10.744Z,3.27
2019-03-13T15:07:39.404Z,3.63
2019-03-13T15:10:11.213Z,3.40
2019-03-13T15:12:42.944Z,3.30
2019-03-13T15:15:15.835Z,3.70
2019-03-13T15:17:45.063Z,3.70
2019-03-13T15:20:16.097Z,3.60
2019-03-13T15:22:45.067Z,3.70
2019-03-13T15:25:14.410Z,3.90
2019-03-13T15:27:43.192Z,3.40
2019-03-13T15:30:17.224Z,3.93
2019-03-13T15:32:45.899Z,4.00
2019-03-13T15:35:14.702Z,4.37
2019-03-13T15:37:43.374Z,3.90
2019-03-13T15:40:18.967Z,4.40
2019-03-13T15:42:49.047Z,3.93
2019-03-13T15:45:26.267Z,3.87
2019-03-13T15:47:55.022Z,3.90
2019-03-13T15:50:23.729Z,3.40
2019-03-13T15:52:52.397Z,3.70
2019-03-13T15:55:21.633Z,3.77
2019-03-13T15:57:50.538Z,3.60
2019-03-13T16:00:24.715Z,3.70
2019-03-13T16:02:55.628Z,4.77
2019-03-13T16:05:23.847Z,4.70
2019-03-13T16:07:52.513Z,4.37
2019-03-13T16:10:21.966Z,4.10
2019-03-13T16:12:51.758Z,3.70
2019-03-13T16:15:37.389Z,3.73
2019-03-13T16:18:06.100Z,4.27
2019-03-13T16:20:34.803Z,4.10
2019-03-13T16:23:03.992Z,3.80
2019-03-13T16:25:32.812Z,4.17
2019-03-13T16:28:01.782Z,4.23
2019-03-13T16:30:32.755Z,4.10
2019-03-13T16:33:01.455Z,4.03
2019-03-13T16:35:30.225Z,4.23
2019-03-13T16:37:58.898Z,4.23
2019-03-13T16:40:27.562Z,4.33
2019-03-13T16:42:56.285Z,3.53
2019-03-13T16:45:24.994Z,4.00
2019-03-13T16:47:53.671Z,4.03
2019-03-13T16:50:27.851Z,4.23
2019-03-13T16:52:56.488Z,4.50
2019-03-13T16:55:25.519Z,4.47
2019-03-13T16:57:54.182Z,4.13
2019-03-13T17:00:27.700Z,4.00
2019-03-13T17:02:56.669Z,4.13
2019-03-13T17:05:25.521Z,3.90
2019-03-13T17:07:54.391Z,4.00
2019-03-13T17:10:27.312Z,3.80
2019-03-13T17:12:56.274Z,4.30
2019-03-13T17:15:25.526Z,4.10
2019-03-13T17:17:54.576Z,3.20
2019-03-13T17:20:42.950Z,4.13
2019-03-13T17:23:11.614Z,4.57
2019-03-13T17:25:40.370Z,4.27
2019-03-13T17:28:09.017Z,4.17
2019-03-13T17:30:37.903Z,4.43
2019-03-13T17:33:06.569Z,4.40
2019-03-13T17:35:35.230Z,4.00
2019-03-13T17:38:03.907Z,4.50
2019-03-13T17:40:33.826Z,4.93
2019-03-13T17:43:03.358Z,5.10
2019-03-13T17:45:32.028Z,4.80
2019-03-13T17:48:00.729Z,5.23
2019-03-13T17:50:29.428Z,6.03
2019-03-13T17:52:58.127Z,5.93
2019-03-13T17:55:27.714Z,5.43
2019-03-13T17:57:57.308Z,5.03
2019-03-13T18:00:32.658Z,5.43
2019-03-13T18:03:04.849Z,5.83
2019-03-13T18:05:33.512Z,5.23
2019-03-13T18:08:02.201Z,5.30
2019-03-13T18:10:30.855Z,4.90
2019-03-13T18:12:59.507Z,4.63
2019-03-13T18:15:28.172Z,5.00
2019-03-13T18:17:56.835Z,4.37
2019-03-13T18:20:25.616Z,5.20
2019-03-13T18:22:54.279Z,4.60
2019-03-13T18:25:23.032Z,4.53
2019-03-13T18:27:51.787Z,4.50
2019-03-13T18:30:34.865Z,5.70
2019-03-13T18:33:03.718Z,5.77
2019-03-13T18:35:32.381Z,5.80
2019-03-13T18:38:01.181Z,5.47
2019-03-13T18:40:29.857Z,4.97
2019-03-13T18:42:58.574Z,4.63
2019-03-13T18:45:32.038Z,6.47
2019-03-13T18:48:00.699Z,5.60
2019-03-13T18:50:29.562Z,5.60
2019-03-13T18:52:58.238Z,6.13
2019-03-13T18:55:34.629Z,6.10
2019-03-13T18:58:03.499Z,6.93
2019-03-13T19:00:33.316Z,7.23
2019-03-13T19:03:02.080Z,7.97
2019-03-13T19:05:32.775Z,9.70
2019-03-13T19:08:01.444Z,7.33
2019-03-13T19:10:32.091Z,8.33
2019-03-13T19:13:00.872Z,7.57
2019-03-13T19:15:30.544Z,7.40
2019-03-13T19:18:00.908Z,10.33
2019-03-13T19:20:30.675Z,8.03
2019-03-13T19:22:59.877Z,7.77
2019-03-13T19:25:28.540Z,6.90
2019-03-13T19:27:57.219Z,8.40
2019-03-13T19:30:33.802Z,8.67
2019-03-13T19:33:02.479Z,9.90
2019-03-13T19:35:31.309Z,10.33
2019-03-13T19:38:13.603Z,8.90
2019-03-13T19:40:42.266Z,7.80
2019-03-13T19:43:11.041Z,8.60
2019-03-13T19:45:47.674Z,8.67
2019-03-13T19:48:16.368Z,11.47
2019-03-13T19:50:45.321Z,9.87
2019-03-13T19:53:14.028Z,11.03
2019-03-13T19:55:42.670Z,12.57
2019-03-13T19:58:11.355Z,12.10
2019-03-13T20:00:40.549Z,12.97
2019-03-13T20:03:14.111Z,13.83
2019-03-13T20:05:46.065Z,11.70
2019-03-13T20:08:14.158Z,9.97
2019-03-13T20:10:43.632Z,8.90
2019-03-13T20:13:12.315Z,8.67
2019-03-13T20:15:41.562Z,8.00
2019-03-13T20:18:10.303Z,8.50
2019-03-13T20:20:39.143Z,8.33
2019-03-13T20:23:13.135Z,8.83
2019-03-13T20:25:42.034Z,7.80
2019-03-13T20:28:10.859Z,10.07
2019-03-13T20:30:39.942Z,9.77
2019-03-13T20:33:08.611Z,11.40
2019-03-13T20:35:37.404Z,10.77
2019-03-13T20:38:06.066Z,10.57
2019-03-13T20:40:35.020Z,9.97
2019-03-13T20:43:03.818Z,8.33
2019-03-13T20:45:32.584Z,8.87
2019-03-13T20:48:01.213Z,10.90
2019-03-13T20:50:36.457Z,11.03
2019-03-13T20:53:00.334Z,8.93
2019-03-13T20:55:29.015Z,8.47
2019-03-13T20:57:57.697Z,7.60
2019-03-13T21:00:29.740Z,8.30
2019-03-13T21:02:59.083Z,8.43
2019-03-13T21:05:27.810Z,8.77
2019-03-13T21:07:56.755Z,8.30
2019-03-13T21:10:25.666Z,9.77
2019-03-13T21:12:54.332Z,8.40
2019-03-13T21:15:29.439Z,12.60
2019-03-13T21:17:58.744Z,10.60
2019-03-13T21:20:27.508Z,8.77
2019-03-13T21:22:58.190Z,8.80
2019-03-13T21:25:27.468Z,9.20
2019-03-13T21:27:56.142Z,8.63
2019-03-13T21:30:26.126Z,9.90
2019-03-13T21:32:55.108Z,8.30
2019-03-13T21:35:24.438Z,9.03
2019-03-13T21:37:53.096Z,9.27
2019-03-13T21:40:23.467Z,9.63
2019-03-13T21:42:54.559Z,9.93
2019-03-13T21:45:23.299Z,10.03
2019-03-13T21:47:52.147Z,10.87
2019-03-13T21:50:21.727Z,9.40
2019-03-13T21:52:50.391Z,10.17
2019-03-13T21:55:19.763Z,11.73
2019-03-13T21:57:51.761Z,15.77
2019-03-13T22:00:26.404Z,15.30
2019-03-13T22:02:55.299Z,10.63
2019-03-13T22:05:27.065Z,10.83
2019-03-13T22:07:54.709Z,9.97
2019-03-13T22:10:23.560Z,9.63
2019-03-13T22:12:52.534Z,10.50
2019-03-13T22:15:23.361Z,10.30
2019-03-13T22:17:52.025Z,14.33
2019-03-13T22:20:20.698Z,13.13
2019-03-13T22:22:49.460Z,10.53
2019-03-13T22:25:19.433Z,12.73
2019-03-13T22:27:48.582Z,16.17
2019-03-13T22:30:24.393Z,14.10
2019-03-13T22:32:53.762Z,14.43
2019-03-13T22:35:22.706Z,18.23
2019-03-13T22:37:51.491Z,14.60
2019-03-13T22:40:20.614Z,12.50
2019-03-13T22:42:49.427Z,12.10
2019-03-13T22:45:19.333Z,11.07
2019-03-13T22:47:48.339Z,11.40
2019-03-13T22:50:22.074Z,11.33
2019-03-13T22:52:50.743Z,10.60
2019-03-13T22:55:19.460Z,11.30
2019-03-13T22:57:48.137Z,11.57
2019-03-13T23:00:35.962Z,10.60
2019-03-13T23:03:04.634Z,10.27
2019-03-13T23:05:36.037Z,10.23
2019-03-13T23:08:04.098Z,10.03
2019-03-13T23:10:36.181Z,9.90
2019-03-13T23:13:04.963Z,10.13
2019-03-13T23:15:33.627Z,10.80
2019-03-13T23:18:02.367Z,10.83
2019-03-13T23:20:31.073Z,10.17
2019-03-13T23:22:59.804Z,10.67
2019-03-13T23:25:28.563Z,9.53
2019-03-13T23:27:57.228Z,9.37
2019-03-13T23:30:25.922Z,9.87
2019-03-13T23:32:54.568Z,10.20
2019-03-13T23:35:23.263Z,10.30
2019-03-13T23:37:51.929Z,11.43
2019-03-13T23:40:22.105Z,10.70
2019-03-13T23:42:50.876Z,9.97
2019-03-13T23:45:19.856Z,11.00
2019-03-13T23:47:48.569Z,12.10
2019-03-13T23:50:17.240Z,12.50
2019-03-13T23:52:45.924Z,11.43
2019-03-13T23:55:14.633Z,11.53
2019-03-13T23:57:43.312Z,10.73
